Milos, Greece

7:26 PM EEST on July 28, 2014 (GMT +0300)
Naxos (LGNX) Elev 10 ft | 37.08 °N, 25.37 °E | Change Station

Current weather conditions updated 36 minutes ago

Clear
Clear
84 °F
Feels Like 87 °F
N
9
Wind Variable Wind from South

Tomorrow is forecast to be Cooler than today.

Today
High -- | Low -- °F
--% Chance of Precip.
Yesterday
High -- | Low -- °F
Precip. -- in
6:24 AM 8:32 PM
Waxing Crescent, 3% visible
Pressure 29.80 in
Visibility -9999.0 miles
Clouds
Heat Index 87 °F
Dew Point 68 °F
Humidity 58%
Rainfall 0.00 in
Snow Depth Not available.
UV Not available.
Pollen Not available.
Air Quality Not available.
Flu Activity Not available.
METAR LGNX 281550Z 17008KT CAVOK 29/20 Q1009

More Conditions Fewer Conditions

Pressure 29.80 in
Visibility -9999.0 miles
Clouds
Heat Index 87 °F
Dew Point 68 °F
Humidity 58%
Rainfall 0.00 in
Snow Depth Not available.
UV Not available.
Pollen Not available.
Air Quality Not available.
Flu Activity Not available.
METAR LGNX 281550Z 17008KT CAVOK 29/20 Q1009

More Conditions Fewer Conditions

10-Day Weather Forecast

Almanac

Astronomy

Jul. 28, 2014 Rise Set
Actual Time 6:24 AM EEST 8:32 PM EEST
Civil Twilight 5:55 AM EEST 9:01 PM EEST
Nautical Twilight 5:20 AM EEST 9:36 PM EEST
Astronomical Twilight 4:41 AM EEST 10:14 PM EEST
Moon 7:45 AM EEST 9:08 PM EEST
Length of Visible Light 15h 05m
Length of Day
14h 07m
Tomorrow will be 1m 39s shorter.
Waxing Crescent, 3% of the Moon is Illuminated
Today
Waxing Crescent
Aug 3
First Quarter
Aug 10
Full
Aug 17
Last Quarter
Aug 25
New

Today's Extremes

Country Highs Country Lows

Community

WunderPhotos

Upload Photos

1,738,401 photos uploaded!

WunderBlogs® & News

Nearby

Snow Depth

Not available.

Earthquake Activity

City Distance Mag. Time & Date
No recent earthquake activity has been reported nearby.
Minimum magnitude displayed is 2.5.

Coastal Water Temperatures

Place Temperature
No Stations Reporting

Nearby Weather Stations

There are no personal weather stations in this area.